createdAt,value
2022-08-29T00:19:07.478Z,68
2022-08-29T00:39:09.293Z,60
2022-08-29T00:59:08.931Z,53
2022-08-29T01:19:09.686Z,44
2022-08-29T03:19:16.615Z,0
2022-08-29T03:59:19.007Z,0
2022-08-29T04:09:19.792Z,0
2022-08-29T04:19:19.965Z,0
2022-08-29T04:29:20.930Z,0
2022-08-29T04:39:21.574Z,0
2022-08-29T04:49:21.926Z,0
2022-08-29T07:19:34.854Z,73
2022-08-29T07:29:35.010Z,87
2022-08-29T07:59:36.086Z,96
2022-08-29T08:09:44.083Z,100
2022-08-29T08:49:37.982Z,100
2022-08-29T10:19:43.058Z,100
2022-08-29T10:29:43.987Z,100
2022-08-29T10:59:45.567Z,100
2022-08-29T11:19:46.546Z,100
2022-08-29T11:39:47.878Z,100
2022-08-29T12:29:50.709Z,100
2022-08-29T13:29:54.411Z,100
2022-08-29T13:49:54.648Z,100
2022-08-29T13:59:55.416Z,100
2022-08-29T14:10:03.321Z,100
2022-08-29T14:20:04.003Z,100
2022-08-29T14:29:57.649Z,100
2022-08-29T14:39:58.209Z,100
2022-08-29T14:49:58.730Z,100
2022-08-29T14:59:59.059Z,100
2022-08-29T15:09:59.311Z,100
2022-08-29T15:30:00.409Z,100
2022-08-29T15:40:12.403Z,99
2022-08-29T15:50:01.276Z,100
2022-08-29T16:00:02.094Z,100
2022-08-29T16:10:04.789Z,98
2022-08-29T16:20:02.983Z,98
2022-08-29T16:30:04.007Z,100
2022-08-29T16:40:04.427Z,100
2022-08-29T16:50:11.547Z,100
2022-08-29T17:10:05.685Z,100
2022-08-29T17:20:06.320Z,100
2022-08-29T17:30:06.478Z,100
2022-08-29T17:40:06.532Z,100
2022-08-29T17:50:07.303Z,100
2022-08-29T18:00:07.568Z,100
2022-08-29T18:10:15.211Z,100
2022-08-29T18:20:09.086Z,100
2022-08-29T18:30:09.545Z,100
2022-08-29T18:40:09.968Z,100
2022-08-29T18:50:10.628Z,100
2022-08-29T19:00:11.128Z,100
2022-08-29T19:10:11.441Z,100
2022-08-29T19:20:11.636Z,100
2022-08-29T19:40:12.774Z,100
2022-08-29T19:50:13.585Z,100
2022-08-29T20:00:21.430Z,100
2022-08-29T20:10:14.729Z,100
2022-08-29T20:20:15.614Z,100
2022-08-29T20:30:16.334Z,100
2022-08-29T20:40:16.497Z,100
2022-08-29T20:50:16.802Z,100
2022-08-29T21:00:17.546Z,100
2022-08-29T21:10:18.338Z,100
2022-08-29T21:20:18.904Z,100
2022-08-29T21:30:19.486Z,100
2022-08-29T21:50:20.857Z,100
2022-08-29T22:30:22.793Z,88
2022-08-29T22:50:24.198Z,81
2022-08-29T23:00:24.508Z,78
2022-08-29T23:10:25.040Z,76
2022-08-29T23:20:33.006Z,73
2022-08-29T23:30:26.609Z,72
2022-08-29T23:40:27.001Z,73
2022-08-29T23:50:27.761Z,72
